createdAt,value
2023-08-18T00:01:35.820Z,85.36
2023-08-18T00:02:06.488Z,85.46
2023-08-18T00:02:37.204Z,85.60
2023-08-18T00:03:07.874Z,85.46
2023-08-18T00:03:38.560Z,85.66
2023-08-18T00:04:09.071Z,85.46
2023-08-18T00:04:39.709Z,85.36
2023-08-18T00:05:10.383Z,85.66
2023-08-18T00:05:40.997Z,85.46
2023-08-18T00:06:11.657Z,85.60
2023-08-18T00:06:42.362Z,85.50
2023-08-18T00:07:12.963Z,85.39
2023-08-18T00:07:43.739Z,85.30
2023-08-18T00:08:14.461Z,85.46
2023-08-18T00:08:45.084Z,85.60
2023-08-18T00:09:15.745Z,85.70
2023-08-18T00:09:46.396Z,85.70
2023-08-18T00:10:17.089Z,85.70
2023-08-18T00:10:47.688Z,85.70
2023-08-18T00:11:18.334Z,85.50
2023-08-18T00:11:49.032Z,85.80
2023-08-18T00:12:19.684Z,85.70
2023-08-18T00:12:50.326Z,86.10
2023-08-18T00:13:20.937Z,86.00
2023-08-18T00:13:51.592Z,86.10
2023-08-18T00:14:22.213Z,86.20
2023-08-18T00:14:52.840Z,86.10
2023-08-18T00:15:23.476Z,86.10
2023-08-18T00:15:54.191Z,85.90
2023-08-18T00:16:24.888Z,85.80
2023-08-18T00:16:55.546Z,86.10
2023-08-18T00:17:26.286Z,86.20
2023-08-18T00:17:57.002Z,86.30
2023-08-18T00:18:27.665Z,86.20
2023-08-18T00:18:58.365Z,86.40
2023-08-18T00:19:29.112Z,86.40
2023-08-18T00:19:59.738Z,86.40
2023-08-18T00:20:30.465Z,86.40
2023-08-18T00:21:01.103Z,86.50
2023-08-18T00:21:31.800Z,86.60
2023-08-18T00:22:02.444Z,86.85
2023-08-18T00:22:33.099Z,86.85
2023-08-18T00:23:03.740Z,86.94
2023-08-18T00:23:34.435Z,87.15
2023-08-18T00:24:05.103Z,86.94
2023-08-18T00:24:35.818Z,86.94
2023-08-18T00:25:06.538Z,87.04
2023-08-18T00:25:37.212Z,86.94
2023-08-18T00:26:07.920Z,87.15
2023-08-18T00:26:38.749Z,87.04
2023-08-18T00:27:09.497Z,86.94
2023-08-18T00:27:40.162Z,86.94
2023-08-18T00:28:10.751Z,86.74
2023-08-18T00:28:41.450Z,86.74
2023-08-18T00:29:12.108Z,86.74
2023-08-18T00:29:42.811Z,86.94
2023-08-18T00:30:13.527Z,86.94
2023-08-18T00:30:44.206Z,86.85
2023-08-18T00:31:14.899Z,86.85
2023-08-18T00:31:45.609Z,86.54
2023-08-18T00:32:16.219Z,86.65
2023-08-18T00:32:46.907Z,86.85
2023-08-18T00:33:17.665Z,86.74
2023-08-18T00:33:48.304Z,86.65
2023-08-18T00:34:18.913Z,86.74
2023-08-18T00:34:49.604Z,86.74
2023-08-18T00:35:20.306Z,86.54
2023-08-18T00:35:50.972Z,86.44
2023-08-18T00:36:21.621Z,86.44
2023-08-18T00:36:52.252Z,86.44
2023-08-18T00:37:22.902Z,86.44
2023-08-18T00:37:53.574Z,86.24
2023-08-18T00:38:24.196Z,86.34
2023-08-18T00:38:54.899Z,86.14
2023-08-18T00:39:25.570Z,86.14
2023-08-18T00:39:56.216Z,86.24
2023-08-18T00:40:26.955Z,86.14
2023-08-18T00:40:57.666Z,86.14
2023-08-18T00:41:28.333Z,86.24
2023-08-18T00:41:58.972Z,86.14
2023-08-18T00:42:29.634Z,86.14
2023-08-18T00:43:00.305Z,86.14
2023-08-18T00:43:30.984Z,86.14
2023-08-18T00:44:01.608Z,86.04
2023-08-18T00:44:32.278Z,86.04
2023-08-18T00:45:02.946Z,86.04
2023-08-18T00:45:33.671Z,86.14
2023-08-18T00:46:04.367Z,86.04
2023-08-18T00:46:35.007Z,86.04
2023-08-18T00:47:05.671Z,85.94
2023-08-18T00:47:36.383Z,85.84
2023-08-18T00:48:07.055Z,85.84
2023-08-18T00:48:37.708Z,85.94
2023-08-18T00:49:08.332Z,85.74
2023-08-18T00:49:38.963Z,85.74
2023-08-18T00:50:09.614Z,85.94
2023-08-18T00:50:40.262Z,85.84
2023-08-18T00:51:10.916Z,85.94
2023-08-18T00:51:41.592Z,86.04
2023-08-18T00:52:12.314Z,86.14
2023-08-18T00:52:42.957Z,86.14
2023-08-18T00:53:13.647Z,86.04
2023-08-18T00:53:44.326Z,85.94
2023-08-18T00:54:15.020Z,86.14
2023-08-18T00:54:46.330Z,86.24
2023-08-18T00:55:16.197Z,86.14
2023-08-18T00:55:46.940Z,86.04
2023-08-18T00:56:17.636Z,86.14
2023-08-18T00:56:48.300Z,86.24
2023-08-18T00:57:18.955Z,86.14
2023-08-18T00:57:49.634Z,86.14
2023-08-18T00:58:20.287Z,86.14
2023-08-18T00:58:51.061Z,86.14
2023-08-18T00:59:21.681Z,86.24
2023-08-18T00:59:52.379Z,86.24
2023-08-18T01:00:23.034Z,86.24
2023-08-18T01:00:53.833Z,86.24
2023-08-18T01:01:24.472Z,86.14
2023-08-18T01:01:55.145Z,86.34
2023-08-18T01:02:25.864Z,86.24
2023-08-18T01:02:56.526Z,86.24
2023-08-18T01:03:27.286Z,86.24
2023-08-18T01:03:57.921Z,86.44
2023-08-18T01:04:28.589Z,86.24
2023-08-18T01:04:59.248Z,86.14
2023-08-18T01:05:29.882Z,86.14
2023-08-18T01:06:00.542Z,86.24
2023-08-18T01:06:31.177Z,86.04
2023-08-18T01:07:01.911Z,86.14
2023-08-18T01:07:32.583Z,86.14
2023-08-18T01:08:03.268Z,86.14
2023-08-18T01:08:33.963Z,86.14
2023-08-18T01:09:04.613Z,86.14
2023-08-18T01:09:35.300Z,86.08
2023-08-18T01:10:05.965Z,86.28
2023-08-18T01:10:36.616Z,86.28
2023-08-18T01:11:07.230Z,86.18
2023-08-18T01:11:37.903Z,86.28
2023-08-18T01:12:08.644Z,86.18
2023-08-18T01:12:39.297Z,86.48
2023-08-18T01:13:09.979Z,86.58
2023-08-18T01:13:40.682Z,86.48
2023-08-18T01:14:11.311Z,86.48
2023-08-18T01:14:41.984Z,86.48
2023-08-18T01:15:12.756Z,86.48
2023-08-18T01:15:43.398Z,86.48
2023-08-18T01:16:14.064Z,86.38
2023-08-18T01:16:44.737Z,86.48
2023-08-18T01:17:15.419Z,86.38
2023-08-18T01:17:46.119Z,86.38
2023-08-18T01:18:16.910Z,86.38
2023-08-18T01:18:47.525Z,86.38
2023-08-18T01:19:18.212Z,86.38
2023-08-18T01:19:48.933Z,86.28
2023-08-18T01:20:19.628Z,86.38
2023-08-18T01:20:50.338Z,86.28
2023-08-18T01:21:21.084Z,86.38
2023-08-18T01:21:51.759Z,86.48
2023-08-18T01:22:22.417Z,86.48
2023-08-18T01:22:53.095Z,86.68
2023-08-18T01:23:23.764Z,86.48
2023-08-18T01:23:54.438Z,86.68
2023-08-18T01:24:37.732Z,86.48
2023-08-18T01:24:56.040Z,86.38
2023-08-18T01:25:26.885Z,86.38
2023-08-18T01:25:58.246Z,86.38
2023-08-18T01:26:28.119Z,86.48
2023-08-18T01:26:59.705Z,86.38
2023-08-18T01:27:41.846Z,86.28
2023-08-18T01:28:00.201Z,86.18
2023-08-18T01:28:30.981Z,86.08
2023-08-18T01:29:01.749Z,86.18
2023-08-18T01:29:32.444Z,86.08
2023-08-18T01:30:03.135Z,86.08
2023-08-18T01:30:34.143Z,86.08
2023-08-18T01:31:04.339Z,85.98
2023-08-18T01:31:35.077Z,86.08
2023-08-18T01:32:05.748Z,85.98
2023-08-18T01:32:36.413Z,85.98
2023-08-18T01:33:07.204Z,85.98
2023-08-18T01:33:37.909Z,85.98
2023-08-18T01:34:08.595Z,85.98
2023-08-18T01:34:39.271Z,85.98
2023-08-18T01:35:09.928Z,85.98
2023-08-18T01:35:40.688Z,85.98
2023-08-18T01:36:11.347Z,85.98
2023-08-18T01:36:42.023Z,85.88
2023-08-18T01:37:12.695Z,85.88
2023-08-18T01:37:43.364Z,85.88
2023-08-18T01:38:14.051Z,85.88
2023-08-18T01:38:44.744Z,85.98
2023-08-18T01:39:15.379Z,85.98
2023-08-18T01:39:46.062Z,85.88
2023-08-18T01:40:16.685Z,85.98
2023-08-18T01:40:47.392Z,85.98
2023-08-18T01:41:18.057Z,85.88
2023-08-18T01:41:48.761Z,85.88
2023-08-18T01:42:19.454Z,85.88
2023-08-18T01:42:50.105Z,85.98
2023-08-18T01:43:20.740Z,85.88
2023-08-18T01:43:51.444Z,85.88
2023-08-18T01:44:22.131Z,85.88
2023-08-18T01:44:52.792Z,85.78
2023-08-18T01:45:23.445Z,85.68
2023-08-18T01:45:54.077Z,85.58
2023-08-18T01:46:24.880Z,85.58
2023-08-18T01:46:55.536Z,85.48
2023-08-18T01:47:26.349Z,85.38
2023-08-18T01:47:57.117Z,85.48
2023-08-18T01:48:27.757Z,85.38
2023-08-18T01:48:58.419Z,85.38
2023-08-18T01:49:29.165Z,85.48
2023-08-18T01:49:59.862Z,85.38
2023-08-18T01:50:30.526Z,85.38
2023-08-18T01:51:01.243Z,85.58
2023-08-18T01:51:31.899Z,85.58
2023-08-18T01:52:02.568Z,85.58
2023-08-18T01:52:33.473Z,85.58
2023-08-18T01:53:04.185Z,85.58
2023-08-18T01:53:34.856Z,85.68
2023-08-18T01:54:05.538Z,85.68
2023-08-18T01:54:36.248Z,85.78
2023-08-18T01:55:07.035Z,85.88
2023-08-18T01:55:37.804Z,85.78
2023-08-18T01:56:08.483Z,85.78
2023-08-18T01:56:39.147Z,85.78
2023-08-18T01:57:09.851Z,85.88
2023-08-18T01:57:40.583Z,85.78
2023-08-18T01:58:11.313Z,85.88
2023-08-18T01:58:42.046Z,85.82
2023-08-18T01:59:12.832Z,85.78
2023-08-18T01:59:43.484Z,85.82
2023-08-18T02:00:20.243Z,85.82
2023-08-18T02:02:04.554Z,85.82
2023-08-18T02:02:35.492Z,85.92
2023-08-18T02:03:06.422Z,85.82
2023-08-18T02:03:37.619Z,85.72
2023-08-18T02:04:07.574Z,85.82
2023-08-18T02:04:38.239Z,85.82
2023-08-18T02:05:08.916Z,85.82
2023-08-18T02:05:39.597Z,85.82
2023-08-18T02:06:10.318Z,85.82
2023-08-18T02:09:30.055Z,86.02
2023-08-18T02:09:58.670Z,86.12
2023-08-18T02:10:29.362Z,86.22
2023-08-18T02:11:00.008Z,86.12
2023-08-18T02:11:30.757Z,86.02
2023-08-18T02:12:01.425Z,85.92
2023-08-18T02:12:32.061Z,86.02
2023-08-18T02:13:02.734Z,86.02
2023-08-18T02:13:33.453Z,85.92
2023-08-18T02:14:04.140Z,85.82
2023-08-18T02:14:34.812Z,85.82
2023-08-18T02:15:05.552Z,85.82
2023-08-18T02:15:36.199Z,85.72
2023-08-18T02:16:06.895Z,85.72
2023-08-18T02:16:37.615Z,85.72
2023-08-18T02:17:08.285Z,85.72
2023-08-18T02:17:38.999Z,85.72
2023-08-18T02:18:09.752Z,85.72
2023-08-18T02:18:40.384Z,85.72
2023-08-18T02:19:11.066Z,85.72
2023-08-18T02:19:41.758Z,85.72
2023-08-18T02:20:12.466Z,85.72
2023-08-18T02:20:43.155Z,85.72
2023-08-18T02:21:13.868Z,85.72
2023-08-18T02:21:44.518Z,85.82
2023-08-18T02:22:15.187Z,85.92
2023-08-18T02:22:45.835Z,85.92
2023-08-18T02:23:16.525Z,85.92
2023-08-18T02:23:47.233Z,85.92
2023-08-18T02:24:17.897Z,85.92
2023-08-18T02:24:48.604Z,85.92
2023-08-18T02:25:19.244Z,85.92
2023-08-18T02:25:49.932Z,86.06
2023-08-18T02:26:20.572Z,86.16
2023-08-18T02:26:51.270Z,86.16
2023-08-18T02:27:21.982Z,86.06
2023-08-18T02:27:52.650Z,86.36
2023-08-18T02:28:23.350Z,86.36
2023-08-18T02:28:54.000Z,86.26
2023-08-18T02:29:24.697Z,86.36
2023-08-18T02:29:55.375Z,86.36
2023-08-18T02:30:26.111Z,86.36
2023-08-18T02:30:56.756Z,86.26
2023-08-18T02:31:27.476Z,86.16
2023-08-18T02:31:58.162Z,86.26
2023-08-18T02:32:28.799Z,86.16
2023-08-18T02:32:59.590Z,86.06
2023-08-18T02:33:30.291Z,86.06
2023-08-18T02:34:00.924Z,86.06
2023-08-18T02:34:31.586Z,86.06
2023-08-18T02:35:02.235Z,86.06
2023-08-18T02:35:32.945Z,86.06
2023-08-18T02:36:03.635Z,86.06
2023-08-18T02:36:34.243Z,86.06
2023-08-18T02:37:04.940Z,86.06
2023-08-18T02:37:35.614Z,86.16
2023-08-18T02:38:06.307Z,86.16
2023-08-18T02:38:36.973Z,86.36
2023-08-18T02:39:07.692Z,86.26
2023-08-18T02:39:38.352Z,86.26
2023-08-18T02:40:09.002Z,86.36
2023-08-18T02:40:39.720Z,86.46
2023-08-18T02:41:10.353Z,86.46
2023-08-18T02:41:40.998Z,86.46
2023-08-18T02:42:11.736Z,86.26
2023-08-18T02:42:42.347Z,86.16
2023-08-18T02:43:12.992Z,86.16
2023-08-18T02:43:43.663Z,85.96
2023-08-18T02:44:14.314Z,85.96
2023-08-18T02:44:44.994Z,85.86
2023-08-18T02:45:15.600Z,85.96
2023-08-18T02:45:46.263Z,85.86
2023-08-18T02:46:16.932Z,85.76
2023-08-18T02:46:47.604Z,85.86
2023-08-18T02:47:18.240Z,85.86
2023-08-18T02:47:48.995Z,85.86
2023-08-18T02:48:19.629Z,85.86
2023-08-18T02:48:50.337Z,85.86
2023-08-18T02:49:21.046Z,85.96
2023-08-18T02:49:51.725Z,85.96
2023-08-18T02:50:22.368Z,85.86
2023-08-18T02:50:53.045Z,85.96
2023-08-18T02:51:23.790Z,85.86
2023-08-18T02:51:54.456Z,85.86
2023-08-18T02:52:25.142Z,85.76
2023-08-18T02:52:55.826Z,85.76
2023-08-18T02:53:26.530Z,85.66
2023-08-18T02:53:57.206Z,85.56
2023-08-18T02:54:27.878Z,85.66
2023-08-18T02:54:58.532Z,85.56
2023-08-18T02:55:29.204Z,85.66
2023-08-18T02:55:59.917Z,85.56
2023-08-18T02:56:30.687Z,85.66
2023-08-18T02:57:01.363Z,85.66
2023-08-18T02:57:32.494Z,85.66
2023-08-18T02:58:02.583Z,85.66
2023-08-18T02:58:33.303Z,85.76
2023-08-18T02:59:03.946Z,85.66
2023-08-18T02:59:34.643Z,85.66
2023-08-18T03:00:05.308Z,85.66
2023-08-18T03:00:36.046Z,85.66
2023-08-18T03:01:06.725Z,85.66
2023-08-18T03:01:37.430Z,85.66
2023-08-18T03:02:08.048Z,85.66
2023-08-18T03:02:38.824Z,85.76
2023-08-18T03:03:09.571Z,85.66
2023-08-18T03:03:40.246Z,85.56
2023-08-18T03:04:10.918Z,85.86
2023-08-18T03:04:41.605Z,85.86
2023-08-18T03:05:12.303Z,85.76
2023-08-18T03:05:42.964Z,85.76
2023-08-18T03:06:13.627Z,85.86
2023-08-18T03:06:44.311Z,85.76
2023-08-18T03:07:15.008Z,85.76
2023-08-18T03:07:45.674Z,85.86
2023-08-18T03:08:16.402Z,85.96
2023-08-18T03:08:47.007Z,85.86
2023-08-18T03:09:17.734Z,85.96
2023-08-18T03:09:48.344Z,85.90
2023-08-18T03:10:19.016Z,85.90
2023-08-18T03:10:49.718Z,85.90
2023-08-18T03:11:20.448Z,85.80
2023-08-18T03:11:51.147Z,85.80
2023-08-18T03:12:21.826Z,85.76
2023-08-18T03:12:52.484Z,85.76
2023-08-18T03:13:23.241Z,85.76
2023-08-18T03:13:53.966Z,85.76
2023-08-18T03:14:24.605Z,85.76
2023-08-18T03:14:55.328Z,85.80
2023-08-18T03:15:25.961Z,85.80
2023-08-18T03:15:56.746Z,85.76
2023-08-18T03:16:27.491Z,85.90
2023-08-18T03:16:58.597Z,86.00
2023-08-18T03:17:28.919Z,85.90
2023-08-18T03:17:59.077Z,85.90
2023-08-18T03:19:58.991Z,85.70
2023-08-18T03:20:29.062Z,85.70
2023-08-18T03:20:59.849Z,85.70
2023-08-18T03:21:30.596Z,85.60
2023-08-18T03:22:01.580Z,85.60
2023-08-18T03:22:31.627Z,85.60
2023-08-18T03:23:02.275Z,85.60
2023-08-18T03:23:32.896Z,85.60
2023-08-18T03:24:03.643Z,85.70
2023-08-18T03:24:34.230Z,85.80
2023-08-18T03:25:04.916Z,85.90
2023-08-18T03:25:35.743Z,85.80
2023-08-18T03:26:06.343Z,86.00
2023-08-18T03:26:37.040Z,86.10
2023-08-18T03:27:07.680Z,86.10
2023-08-18T03:27:38.288Z,86.00
2023-08-18T03:28:08.895Z,86.00
2023-08-18T03:28:39.518Z,86.00
2023-08-18T03:29:10.194Z,86.10
2023-08-18T03:29:40.782Z,86.41
2023-08-18T03:30:11.602Z,86.30
2023-08-18T03:30:42.284Z,86.10
2023-08-18T03:32:38.595Z,86.00
2023-08-18T03:33:09.483Z,85.90
2023-08-18T03:33:40.326Z,85.80
2023-08-18T03:34:11.058Z,85.80
2023-08-18T03:34:41.808Z,85.80
2023-08-18T03:35:12.819Z,85.90
2023-08-18T03:35:42.741Z,85.90
2023-08-18T03:36:13.356Z,85.80
2023-08-18T03:36:44.014Z,85.90
2023-08-18T03:37:14.676Z,85.80
2023-08-18T03:37:45.253Z,85.80
2023-08-18T03:38:15.892Z,85.80
2023-08-18T03:38:46.524Z,85.70
2023-08-18T03:39:17.171Z,85.90
2023-08-18T03:39:47.766Z,85.90
2023-08-18T03:40:18.426Z,85.90
2023-08-18T03:40:48.714Z,85.80
2023-08-18T03:41:19.356Z,85.80
2023-08-18T03:41:50.057Z,86.00
2023-08-18T03:42:20.708Z,86.00
2023-08-18T03:42:52.464Z,86.00
2023-08-18T03:43:22.204Z,85.90
2023-08-18T03:43:52.661Z,85.90
2023-08-18T03:44:23.356Z,85.80
2023-08-18T03:44:53.951Z,85.90
2023-08-18T03:45:24.630Z,85.80
2023-08-18T03:45:55.232Z,85.80
2023-08-18T03:46:25.834Z,85.80
2023-08-18T03:46:56.333Z,85.80
2023-08-18T03:47:26.961Z,85.70
2023-08-18T03:47:57.617Z,85.90
2023-08-18T03:48:43.156Z,85.90
2023-08-18T03:48:58.629Z,85.90
2023-08-18T03:49:29.533Z,85.80
2023-08-18T03:49:59.428Z,86.00
2023-08-18T03:50:46.079Z,86.00
2023-08-18T03:51:00.703Z,86.00
2023-08-18T03:51:30.958Z,86.00
2023-08-18T03:52:02.171Z,86.00
2023-08-18T03:52:32.176Z,86.00
2023-08-18T03:53:02.850Z,86.04
2023-08-18T03:53:33.256Z,86.04
2023-08-18T03:54:03.876Z,86.00
2023-08-18T03:54:33.935Z,85.94
2023-08-18T03:55:04.401Z,85.94
2023-08-18T03:55:34.842Z,85.94
2023-08-18T03:56:05.354Z,85.90
2023-08-18T03:56:35.890Z,86.00
2023-08-18T03:57:06.401Z,86.00
2023-08-18T03:57:36.812Z,85.80
2023-08-18T03:58:07.264Z,85.90
2023-08-18T03:58:37.748Z,85.90
2023-08-18T03:59:08.199Z,85.80
2023-08-18T03:59:38.671Z,85.80
2023-08-18T04:00:09.100Z,85.70
2023-08-18T04:00:39.612Z,85.80
2023-08-18T04:01:10.458Z,85.80
2023-08-18T04:01:40.538Z,85.90
2023-08-18T04:02:10.957Z,85.80
2023-08-18T04:02:41.444Z,85.70
2023-08-18T04:03:11.956Z,85.90
2023-08-18T04:03:42.455Z,85.80
2023-08-18T04:04:13.050Z,86.00
2023-08-18T04:04:43.512Z,86.10
2023-08-18T04:05:13.968Z,86.15
2023-08-18T04:05:45.367Z,86.15
2023-08-18T04:06:15.203Z,86.15
2023-08-18T04:06:45.678Z,86.04
2023-08-18T04:07:16.146Z,86.24
2023-08-18T04:07:46.640Z,86.24
2023-08-18T04:08:17.134Z,86.15
2023-08-18T04:08:47.653Z,86.24
2023-08-18T04:09:18.105Z,86.15
2023-08-18T04:09:48.635Z,86.15
2023-08-18T04:10:19.065Z,86.15
2023-08-18T04:10:49.525Z,86.04
2023-08-18T04:11:19.978Z,86.04
2023-08-18T04:11:50.836Z,86.04
2023-08-18T04:12:21.039Z,86.04
2023-08-18T04:12:51.517Z,86.04
2023-08-18T04:13:21.970Z,85.94
2023-08-18T04:13:52.449Z,85.94
2023-08-18T04:14:22.913Z,85.94
2023-08-18T04:14:53.358Z,85.94
2023-08-18T04:15:23.804Z,86.04
2023-08-18T04:15:54.367Z,86.04
2023-08-18T04:16:24.732Z,85.84
2023-08-18T04:16:55.212Z,85.84
2023-08-18T04:17:26.881Z,85.84
2023-08-18T04:17:56.163Z,85.74
2023-08-18T04:18:26.612Z,85.84
2023-08-18T04:18:57.081Z,85.70
2023-08-18T04:19:27.576Z,85.64
2023-08-18T04:19:57.955Z,85.60
2023-08-18T04:20:28.423Z,85.54
2023-08-18T04:20:58.919Z,85.50
2023-08-18T04:21:29.378Z,85.40
2023-08-18T04:21:59.859Z,85.30
2023-08-18T04:24:03.065Z,85.20
2023-08-18T04:24:34.796Z,85.10
2023-08-18T04:25:04.153Z,85.20
2023-08-18T04:25:34.843Z,85.20
2023-08-18T04:26:06.373Z,85.30
2023-08-18T04:28:01.488Z,85.54
2023-08-18T04:28:31.540Z,85.54
2023-08-18T04:29:02.123Z,85.74
2023-08-18T04:29:33.282Z,86.04
2023-08-18T04:30:03.029Z,85.94
2023-08-18T04:30:33.489Z,85.94
2023-08-18T04:31:03.946Z,85.84
2023-08-18T04:31:34.491Z,85.84
2023-08-18T04:32:04.899Z,85.84
2023-08-18T04:32:35.412Z,85.84
2023-08-18T04:33:05.923Z,85.74
2023-08-18T04:33:36.589Z,85.74
2023-08-18T04:34:07.106Z,85.64
2023-08-18T04:34:37.496Z,85.54
2023-08-18T04:35:08.004Z,85.44
2023-08-18T04:35:38.503Z,85.60
2023-08-18T04:36:08.928Z,85.64
2023-08-18T04:36:39.431Z,85.54
2023-08-18T04:37:09.825Z,85.64
2023-08-18T04:37:40.306Z,85.54
2023-08-18T04:38:10.728Z,85.64
2023-08-18T04:38:41.175Z,85.64
2023-08-18T04:39:11.599Z,85.84
2023-08-18T04:39:42.029Z,85.64
2023-08-18T04:42:11.582Z,85.84
2023-08-18T04:42:43.205Z,85.74
2023-08-18T04:43:12.419Z,85.74
2023-08-18T04:43:43.066Z,85.74
2023-08-18T04:44:13.842Z,85.94
2023-08-18T04:44:56.028Z,85.94
2023-08-18T04:46:40.847Z,86.04
2023-08-18T04:47:11.509Z,86.15
2023-08-18T04:47:43.492Z,85.94
2023-08-18T04:48:12.830Z,85.74
2023-08-18T04:48:43.356Z,85.90
2023-08-18T04:49:13.772Z,86.15
2023-08-18T04:49:44.286Z,86.24
2023-08-18T04:50:14.737Z,85.74
2023-08-18T04:50:45.176Z,85.74
2023-08-18T04:51:15.625Z,85.80
2023-08-18T04:51:46.172Z,86.10
2023-08-18T04:52:16.619Z,86.21
2023-08-18T04:52:47.094Z,85.90
2023-08-18T04:55:29.404Z,86.10
2023-08-18T04:56:01.030Z,86.00
2023-08-18T04:56:30.373Z,86.21
2023-08-18T04:57:01.025Z,85.90
2023-08-18T04:57:31.841Z,86.30
2023-08-18T04:58:02.345Z,86.10
2023-08-18T04:58:32.886Z,86.41
2023-08-18T04:59:03.414Z,86.51
2023-08-18T04:59:33.873Z,86.21
2023-08-18T05:00:04.436Z,86.10
2023-08-18T05:00:34.992Z,86.00
2023-08-18T05:01:05.454Z,86.51
2023-08-18T05:01:35.916Z,86.51
2023-08-18T05:02:06.497Z,86.61
2023-08-18T05:02:37.112Z,86.30
2023-08-18T05:03:07.692Z,86.51
2023-08-18T05:05:15.279Z,86.21
2023-08-18T05:07:12.038Z,86.30
2023-08-18T05:07:42.698Z,85.70
2023-08-18T05:08:13.298Z,85.80
2023-08-18T05:08:44.142Z,85.50
2023-08-18T05:09:13.925Z,85.20
2023-08-18T05:09:45.371Z,86.21
2023-08-18T05:10:15.176Z,85.50
2023-08-18T05:10:45.685Z,86.21
2023-08-18T05:11:16.191Z,86.30
2023-08-18T05:11:47.645Z,86.10
2023-08-18T05:12:17.398Z,86.10
2023-08-18T05:13:03.359Z,85.80
2023-08-18T05:13:18.159Z,86.41
2023-08-18T05:13:48.777Z,86.10
2023-08-18T05:14:19.463Z,85.90
2023-08-18T05:14:50.209Z,85.70
2023-08-18T05:15:20.763Z,86.26
2023-08-18T05:15:51.259Z,85.90
2023-08-18T05:16:21.695Z,86.51
2023-08-18T05:16:52.299Z,85.70
2023-08-18T05:17:22.777Z,85.80
2023-08-18T05:17:53.277Z,85.90
2023-08-18T05:18:23.729Z,86.21
2023-08-18T05:18:56.393Z,86.10
2023-08-18T05:19:24.529Z,85.70
2023-08-18T05:19:54.985Z,86.10
2023-08-18T05:20:25.456Z,86.36
2023-08-18T05:20:56.012Z,86.91
2023-08-18T05:21:26.426Z,86.41
2023-08-18T05:21:56.893Z,85.90
2023-08-18T05:22:27.769Z,86.10
2023-08-18T05:22:57.724Z,86.10
2023-08-18T05:23:28.246Z,86.61
2023-08-18T05:23:58.777Z,86.91
2023-08-18T05:24:29.293Z,86.91
2023-08-18T05:24:59.724Z,86.66
2023-08-18T05:25:30.185Z,86.66
2023-08-18T05:26:00.810Z,86.36
2023-08-18T05:26:31.266Z,86.06
2023-08-18T05:27:01.791Z,85.96
2023-08-18T05:27:32.239Z,86.26
2023-08-18T05:28:02.679Z,86.77
2023-08-18T05:28:33.147Z,86.36
2023-08-18T05:29:03.648Z,86.26
2023-08-18T05:29:34.081Z,86.57
2023-08-18T05:30:04.589Z,86.16
2023-08-18T05:30:35.131Z,85.86
2023-08-18T05:31:05.678Z,85.66
2023-08-18T05:31:36.220Z,85.86
2023-08-18T05:32:06.645Z,85.96
2023-08-18T05:32:37.184Z,86.26
2023-08-18T05:33:07.636Z,85.96
2023-08-18T05:33:38.080Z,85.96
2023-08-18T05:35:41.577Z,85.31
2023-08-18T05:36:12.347Z,85.22
2023-08-18T05:36:43.020Z,85.42
2023-08-18T05:37:13.565Z,85.42
2023-08-18T05:37:44.138Z,84.71
2023-08-18T05:38:14.839Z,84.81
2023-08-18T05:38:45.379Z,84.81
2023-08-18T05:39:15.852Z,84.61
2023-08-18T05:39:46.411Z,84.31
2023-08-18T05:40:16.828Z,83.97
2023-08-18T05:40:47.421Z,84.17
2023-08-18T05:41:17.880Z,84.27
2023-08-18T05:41:48.340Z,84.77
2023-08-18T05:42:18.833Z,84.67
2023-08-18T05:42:49.302Z,84.57
2023-08-18T05:43:19.808Z,84.88
2023-08-18T05:43:50.398Z,85.08
2023-08-18T05:44:20.872Z,84.88
2023-08-18T05:44:51.322Z,85.08
2023-08-18T05:45:21.884Z,84.97
2023-08-18T05:45:52.363Z,84.97
2023-08-18T05:46:22.819Z,84.67
2023-08-18T05:46:53.283Z,85.17
2023-08-18T05:47:23.763Z,84.67
2023-08-18T05:47:54.294Z,85.08
2023-08-18T05:48:24.737Z,85.28
2023-08-18T05:48:55.254Z,84.57
2023-08-18T05:49:25.689Z,84.88
2023-08-18T05:49:56.133Z,85.58
2023-08-18T05:50:26.644Z,84.67
2023-08-18T05:50:57.059Z,85.68
2023-08-18T05:51:27.560Z,85.28
2023-08-18T05:51:57.969Z,86.58
2023-08-18T05:52:28.755Z,86.58
2023-08-18T05:52:58.734Z,87.08
2023-08-18T05:53:29.163Z,87.73
2023-08-18T05:53:59.710Z,87.93
2023-08-18T05:54:30.145Z,88.13
2023-08-18T05:55:00.579Z,87.73
2023-08-18T05:55:31.243Z,88.07
2023-08-18T05:56:01.758Z,88.98
2023-08-18T05:56:32.436Z,89.18
2023-08-18T05:57:02.890Z,89.28
2023-08-18T05:57:33.362Z,88.38
2023-08-18T05:58:03.819Z,89.79
2023-08-18T05:58:34.329Z,89.59
2023-08-18T05:59:04.866Z,88.98
2023-08-18T05:59:45.526Z,90.09
2023-08-18T06:00:05.944Z,89.89
2023-08-18T06:00:36.493Z,89.93
2023-08-18T06:01:15.544Z,90.23
2023-08-18T06:01:37.995Z,90.73
2023-08-18T06:03:35.952Z,89.53
2023-08-18T06:04:06.906Z,90.03
2023-08-18T06:04:36.795Z,90.39
2023-08-18T06:05:07.329Z,90.39
2023-08-18T06:05:37.990Z,90.29
2023-08-18T06:06:08.751Z,90.59
2023-08-18T06:06:39.320Z,90.59
2023-08-18T06:07:09.793Z,90.49
2023-08-18T06:07:40.300Z,90.09
2023-08-18T06:08:10.764Z,90.09
2023-08-18T06:08:41.301Z,90.19
2023-08-18T06:09:11.758Z,90.89
2023-08-18T06:09:42.221Z,90.29
2023-08-18T06:10:12.726Z,89.08
2023-08-18T06:10:43.198Z,89.54
2023-08-18T06:11:13.624Z,89.54
2023-08-18T06:11:44.107Z,89.54
2023-08-18T06:12:14.579Z,88.94
2023-08-18T06:12:45.052Z,89.30
2023-08-18T06:13:15.469Z,89.60
2023-08-18T06:13:45.943Z,89.40
2023-08-18T06:14:16.467Z,89.20
2023-08-18T06:14:46.931Z,89.20
2023-08-18T06:15:17.428Z,89.10
2023-08-18T06:15:47.937Z,88.09
2023-08-18T06:16:18.408Z,88.49
2023-08-18T06:16:48.853Z,88.79
2023-08-18T06:17:19.343Z,88.70
2023-08-18T06:17:49.862Z,88.19
2023-08-18T06:18:20.315Z,87.65
2023-08-18T06:18:50.846Z,86.90
2023-08-18T06:19:21.356Z,86.40
2023-08-18T06:19:51.769Z,86.26
2023-08-18T06:20:22.380Z,85.41
2023-08-18T06:20:52.809Z,83.77
2023-08-18T06:21:23.353Z,82.63
2023-08-18T06:21:53.834Z,81.38
2023-08-18T06:22:24.338Z,80.74
2023-08-18T06:22:54.796Z,80.21
2023-08-18T06:23:25.284Z,78.77
2023-08-18T06:23:55.804Z,77.23
2023-08-18T06:24:26.240Z,76.29
2023-08-18T06:24:56.691Z,75.56
2023-08-18T06:25:27.156Z,75.52
2023-08-18T06:25:57.584Z,74.82
2023-08-18T06:26:28.082Z,75.42
2023-08-18T06:26:58.537Z,74.52
2023-08-18T06:27:29.036Z,76.02
2023-08-18T06:27:59.454Z,75.16
2023-08-18T06:28:29.996Z,76.06
2023-08-18T06:29:00.602Z,76.26
2023-08-18T06:29:31.045Z,76.79
2023-08-18T06:30:01.526Z,76.79
2023-08-18T06:30:31.979Z,76.73
2023-08-18T06:31:02.465Z,77.53
2023-08-18T06:31:32.990Z,78.36
2023-08-18T06:32:03.437Z,78.86
2023-08-18T06:32:33.956Z,78.47
2023-08-18T06:33:04.510Z,78.56
2023-08-18T06:33:43.146Z,78.77
2023-08-18T06:34:05.504Z,78.47
2023-08-18T06:34:35.988Z,78.36
2023-08-18T06:35:06.449Z,78.27
2023-08-18T06:35:36.990Z,78.27
2023-08-18T06:36:07.460Z,78.56
2023-08-18T06:36:37.928Z,79.36
2023-08-18T06:37:08.443Z,79.80
2023-08-18T06:37:39.651Z,79.50
2023-08-18T06:38:09.451Z,79.30
2023-08-18T06:38:39.972Z,79.50
2023-08-18T06:39:10.490Z,79.94
2023-08-18T06:39:41.015Z,80.35
2023-08-18T06:40:11.573Z,80.54
2023-08-18T06:40:42.075Z,80.85
2023-08-18T06:41:12.600Z,81.15
2023-08-18T06:41:43.065Z,81.74
2023-08-18T06:42:13.552Z,82.35
2023-08-18T06:42:44.020Z,81.68
2023-08-18T06:43:14.590Z,81.68
2023-08-18T06:43:44.991Z,82.59
2023-08-18T06:44:15.499Z,82.69
2023-08-18T06:44:45.970Z,82.79
2023-08-18T06:45:16.450Z,83.09
2023-08-18T06:45:46.926Z,83.53
2023-08-18T06:46:17.544Z,84.13
2023-08-18T06:46:48.064Z,83.63
2023-08-18T06:47:18.532Z,83.53
2023-08-18T06:47:49.051Z,84.33
2023-08-18T06:48:19.481Z,84.23
2023-08-18T06:48:49.941Z,83.63
2023-08-18T06:49:20.425Z,84.33
2023-08-18T06:49:50.915Z,84.43
2023-08-18T06:50:21.396Z,84.33
2023-08-18T06:50:51.839Z,84.53
2023-08-18T06:51:22.309Z,84.57
2023-08-18T06:51:52.809Z,84.88
2023-08-18T06:52:23.276Z,84.27
2023-08-18T06:52:53.782Z,84.57
2023-08-18T06:53:24.238Z,85.27
2023-08-18T06:53:54.704Z,85.58
2023-08-18T06:54:25.156Z,85.97
2023-08-18T06:54:56.027Z,84.97
2023-08-18T06:55:27.999Z,86.18
2023-08-18T06:56:02.365Z,85.27
2023-08-18T06:56:29.030Z,84.97
2023-08-18T06:56:58.826Z,85.44